sensor_id;sensor_type;location;lat;lon;timestamp;pressure;altitude;pressure_sealevel;temperature;humidity
68988;BME280;56038;46.080;11.116;2023-03-21T00:01:10;99638.53;;;10.27;66.04
68988;BME280;56038;46.080;11.116;2023-03-21T00:06:14;99636.91;;;10.23;68.27
68988;BME280;56038;46.080;11.116;2023-03-21T00:11:15;99637.97;;;10.17;65.72
68988;BME280;56038;46.080;11.116;2023-03-21T00:16:19;99638.19;;;10.11;65.62
68988;BME280;56038;46.080;11.116;2023-03-21T00:21:22;99628.72;;;10.07;66.35
68988;BME280;56038;46.080;11.116;2023-03-21T00:26:27;99628.84;;;10.04;65.61
68988;BME280;56038;46.080;11.116;2023-03-21T00:31:30;99618.75;;;9.94;65.95
68988;BME280;56038;46.080;11.116;2023-03-21T00:36:32;99617.47;;;9.80;66.96
68988;BME280;56038;46.080;11.116;2023-03-21T00:41:34;99621.19;;;9.73;66.87
68988;BME280;56038;46.080;11.116;2023-03-21T00:46:37;99614.53;;;9.65;67.32
68988;BME280;56038;46.080;11.116;2023-03-21T00:51:38;99611.06;;;9.64;67.30
68988;BME280;56038;46.080;11.116;2023-03-21T00:56:40;99606.81;;;9.60;66.96
68988;BME280;56038;46.080;11.116;2023-03-21T01:01:43;99602.78;;;9.51;67.47
68988;BME280;56038;46.080;11.116;2023-03-21T01:06:46;99596.75;;;9.49;67.61
68988;BME280;56038;46.080;11.116;2023-03-21T01:11:49;99592.53;;;9.45;67.73
68988;BME280;56038;46.080;11.116;2023-03-21T01:16:52;99595.19;;;9.44;67.86
68988;BME280;56038;46.080;11.116;2023-03-21T01:21:57;99593.53;;;9.41;67.66
68988;BME280;56038;46.080;11.116;2023-03-21T01:27:01;99583.31;;;9.35;68.35
68988;BME280;56038;46.080;11.116;2023-03-21T01:32:04;99588.63;;;9.32;68.15
68988;BME280;56038;46.080;11.116;2023-03-21T01:37:06;99584.38;;;9.28;68.48
68988;BME280;56038;46.080;11.116;2023-03-21T01:42:11;99585.38;;;9.24;68.19
68988;BME280;56038;46.080;11.116;2023-03-21T01:47:15;99582.13;;;9.17;68.77
68988;BME280;56038;46.080;11.116;2023-03-21T01:52:19;99576.75;;;9.22;68.09
68988;BME280;56038;46.080;11.116;2023-03-21T01:57:26;99567.25;;;9.21;68.17
68988;BME280;56038;46.080;11.116;2023-03-21T02:02:33;99561.19;;;9.20;68.33
68988;BME280;56038;46.080;11.116;2023-03-21T02:07:37;99559.66;;;9.13;68.82
68988;BME280;56038;46.080;11.116;2023-03-21T02:12:41;99551.97;;;9.09;69.23
68988;BME280;56038;46.080;11.116;2023-03-21T02:17:49;99546.88;;;9.06;69.66
68988;BME280;56038;46.080;11.116;2023-03-21T02:28:45;99542.56;;;9.05;68.99
68988;BME280;56038;46.080;11.116;2023-03-21T02:34:21;99537.50;;;9.00;70.29
68988;BME280;56038;46.080;11.116;2023-03-21T02:39:41;99530.81;;;8.91;69.65
68988;BME280;56038;46.080;11.116;2023-03-21T02:44:48;99525.81;;;8.85;69.64
68988;BME280;56038;46.080;11.116;2023-03-21T02:49:56;99524.41;;;8.74;69.93
68988;BME280;56038;46.080;11.116;2023-03-21T02:55:00;99521.13;;;8.67;69.86
68988;BME280;56038;46.080;11.116;2023-03-21T03:00:05;99524.56;;;8.69;69.61
68988;BME280;56038;46.080;11.116;2023-03-21T03:05:14;99527.16;;;8.69;70.05
68988;BME280;56038;46.080;11.116;2023-03-21T03:10:28;99531.47;;;8.70;70.88
68988;BME280;56038;46.080;11.116;2023-03-21T03:15:37;99533.59;;;8.57;70.27
68988;BME280;56038;46.080;11.116;2023-03-21T03:20:51;99531.13;;;8.51;70.53
68988;BME280;56038;46.080;11.116;2023-03-21T03:26:02;99532.19;;;8.46;70.68
68988;BME280;56038;46.080;11.116;2023-03-21T03:31:06;99534.19;;;8.36;71.03
68988;BME280;56038;46.080;11.116;2023-03-21T03:36:12;99541.25;;;8.31;71.07
68988;BME280;56038;46.080;11.116;2023-03-21T03:41:18;99540.44;;;8.29;73.24
68988;BME280;56038;46.080;11.116;2023-03-21T03:46:26;99541.47;;;8.23;71.32
68988;BME280;56038;46.080;11.116;2023-03-21T03:51:32;99538.44;;;8.07;72.15
68988;BME280;56038;46.080;11.116;2023-03-21T03:56:38;99536.69;;;8.08;71.78
68988;BME280;56038;46.080;11.116;2023-03-21T04:01:40;99542.66;;;8.11;71.74
68988;BME280;56038;46.080;11.116;2023-03-21T04:06:42;99546.84;;;8.17;71.76
68988;BME280;56038;46.080;11.116;2023-03-21T04:11:46;99546.16;;;8.10;71.70
68988;BME280;56038;46.080;11.116;2023-03-21T04:16:48;99553.19;;;8.07;71.67
68988;BME280;56038;46.080;11.116;2023-03-21T04:21:49;99552.44;;;8.02;72.35
68988;BME280;56038;46.080;11.116;2023-03-21T04:26:53;99558.69;;;7.96;72.57
68988;BME280;56038;46.080;11.116;2023-03-21T04:31:55;99558.75;;;7.93;72.39
68988;BME280;56038;46.080;11.116;2023-03-21T04:36:57;99563.03;;;7.96;72.71
68988;BME280;56038;46.080;11.116;2023-03-21T04:42:00;99563.19;;;7.90;72.61
68988;BME280;56038;46.080;11.116;2023-03-21T04:47:02;99564.06;;;7.90;72.37
68988;BME280;56038;46.080;11.116;2023-03-21T04:52:04;99553.72;;;7.87;72.59
68988;BME280;56038;46.080;11.116;2023-03-21T04:57:07;99555.50;;;7.85;72.41
68988;BME280;56038;46.080;11.116;2023-03-21T05:02:09;99557.28;;;7.83;72.64
68988;BME280;56038;46.080;11.116;2023-03-21T05:07:11;99546.25;;;7.75;73.10
68988;BME280;56038;46.080;11.116;2023-03-21T05:12:15;99543.81;;;7.67;73.54
68988;BME280;56038;46.080;11.116;2023-03-21T05:17:18;99549.19;;;7.61;73.87
68988;BME280;56038;46.080;11.116;2023-03-21T05:22:23;99562.25;;;7.60;73.53
68988;BME280;56038;46.080;11.116;2023-03-21T05:27:27;99558.66;;;7.64;73.45
68988;BME280;56038;46.080;11.116;2023-03-21T05:32:35;99563.72;;;7.68;73.43
68988;BME280;56038;46.080;11.116;2023-03-21T05:37:37;99564.59;;;7.69;73.11
68988;BME280;56038;46.080;11.116;2023-03-21T05:42:40;99575.63;;;7.78;72.33
68988;BME280;56038;46.080;11.116;2023-03-21T05:47:42;99585.31;;;7.72;73.18
68988;BME280;56038;46.080;11.116;2023-03-21T05:52:44;99588.91;;;7.66;72.99
68988;BME280;56038;46.080;11.116;2023-03-21T05:57:47;99590.53;;;7.70;72.78
68988;BME280;56038;46.080;11.116;2023-03-21T06:02:49;99580.31;;;7.64;73.66
68988;BME280;56038;46.080;11.116;2023-03-21T06:07:51;99582.81;;;7.67;73.66
68988;BME280;56038;46.080;11.116;2023-03-21T06:12:54;99590.53;;;7.70;73.52
68988;BME280;56038;46.080;11.116;2023-03-21T06:17:56;99586.03;;;7.78;73.34
68988;BME280;56038;46.080;11.116;2023-03-21T06:22:57;99593.50;;;7.91;72.54
68988;BME280;56038;46.080;11.116;2023-03-21T06:28:00;99601.78;;;8.06;72.01
68988;BME280;56038;46.080;11.116;2023-03-21T06:33:02;99598.97;;;8.14;72.22
68988;BME280;56038;46.080;11.116;2023-03-21T06:38:04;99597.69;;;8.29;71.59
68988;BME280;56038;46.080;11.116;2023-03-21T06:43:07;99591.16;;;8.47;70.38
68988;BME280;56038;46.080;11.116;2023-03-21T06:48:09;99595.97;;;8.60;69.99
68988;BME280;56038;46.080;11.116;2023-03-21T06:53:11;99600.97;;;8.68;69.28
68988;BME280;56038;46.080;11.116;2023-03-21T06:58:14;99605.91;;;8.77;69.24
68988;BME280;56038;46.080;11.116;2023-03-21T07:03:16;99604.59;;;8.92;68.79
68988;BME280;56038;46.080;11.116;2023-03-21T07:08:18;99602.41;;;9.08;68.71
68988;BME280;56038;46.080;11.116;2023-03-21T07:13:22;99610.66;;;9.22;67.79
68988;BME280;56038;46.080;11.116;2023-03-21T07:18:23;99601.28;;;9.43;67.17
68988;BME280;56038;46.080;11.116;2023-03-21T07:23:26;99593.44;;;9.71;66.65
68988;BME280;56038;46.080;11.116;2023-03-21T07:28:30;99599.63;;;9.93;65.73
68988;BME280;56038;46.080;11.116;2023-03-21T07:33:32;99590.97;;;10.17;65.54
68988;BME280;56038;46.080;11.116;2023-03-21T07:38:33;99598.41;;;10.30;64.78
68988;BME280;56038;46.080;11.116;2023-03-21T07:43:37;99602.25;;;10.44;63.85
68988;BME280;56038;46.080;11.116;2023-03-21T07:48:38;99599.06;;;10.60;64.04
68988;BME280;56038;46.080;11.116;2023-03-21T07:53:40;99593.50;;;10.69;63.51
68988;BME280;56038;46.080;11.116;2023-03-21T07:58:44;99594.88;;;10.79;63.12
68988;BME280;56038;46.080;11.116;2023-03-21T08:03:46;99592.00;;;11.08;63.02
68988;BME280;56038;46.080;11.116;2023-03-21T08:08:48;99582.97;;;11.39;62.08
68988;BME280;56038;46.080;11.116;2023-03-21T08:13:52;99589.22;;;11.57;61.41
68988;BME280;56038;46.080;11.116;2023-03-21T08:18:55;99584.56;;;11.63;61.44
68988;BME280;56038;46.080;11.116;2023-03-21T08:23:57;99568.19;;;11.80;60.65
68988;BME280;56038;46.080;11.116;2023-03-21T08:29:00;99567.75;;;11.91;60.49
68988;BME280;56038;46.080;11.116;2023-03-21T08:34:02;99565.97;;;12.12;60.09
68988;BME280;56038;46.080;11.116;2023-03-21T08:39:04;99557.28;;;12.32;59.72
68988;BME280;56038;46.080;11.116;2023-03-21T08:44:09;99554.66;;;12.50;59.14
68988;BME280;56038;46.080;11.116;2023-03-21T08:49:11;99553.75;;;12.70;58.72
68988;BME280;56038;46.080;11.116;2023-03-21T08:54:18;99543.78;;;12.97;57.96
68988;BME280;56038;46.080;11.116;2023-03-21T08:59:22;99531.84;;;13.28;57.44
68988;BME280;56038;46.080;11.116;2023-03-21T09:04:24;99528.78;;;13.54;56.45
68988;BME280;56038;46.080;11.116;2023-03-21T09:09:26;99519.22;;;13.70;55.80
68988;BME280;56038;46.080;11.116;2023-03-21T09:14:29;99514.84;;;14.04;54.06
68988;BME280;56038;46.080;11.116;2023-03-21T09:19:32;99511.06;;;14.43;54.21
68988;BME280;56038;46.080;11.116;2023-03-21T09:24:34;99512.47;;;14.81;52.73
68988;BME280;56038;46.080;11.116;2023-03-21T09:29:37;99498.94;;;15.35;51.10
68988;BME280;56038;46.080;11.116;2023-03-21T09:34:39;99490.63;;;15.56;51.04
68988;BME280;56038;46.080;11.116;2023-03-21T09:39:41;99493.28;;;15.86;50.26
68988;BME280;56038;46.080;11.116;2023-03-21T09:44:55;99477.66;;;16.40;46.31
68988;BME280;56038;46.080;11.116;2023-03-21T09:50:05;99474.16;;;16.83;48.06
68988;BME280;56038;46.080;11.116;2023-03-21T09:55:16;99473.72;;;17.43;44.60
68988;BME280;56038;46.080;11.116;2023-03-21T10:00:25;99458.63;;;17.84;45.52
68988;BME280;56038;46.080;11.116;2023-03-21T10:05:32;99448.41;;;18.29;44.43
68988;BME280;56038;46.080;11.116;2023-03-21T10:10:40;99444.19;;;18.76;44.05
68988;BME280;56038;46.080;11.116;2023-03-21T10:15:47;99436.94;;;19.14;43.45
68988;BME280;56038;46.080;11.116;2023-03-21T10:20:50;99431.47;;;19.40;42.87
68988;BME280;56038;46.080;11.116;2023-03-21T10:25:54;99433.97;;;19.54;41.76
68988;BME280;56038;46.080;11.116;2023-03-21T10:31:01;99417.66;;;20.16;40.75
68988;BME280;56038;46.080;11.116;2023-03-21T10:36:07;99413.44;;;20.58;40.03
68988;BME280;56038;46.080;11.116;2023-03-21T10:41:10;99394.22;;;20.98;39.90
68988;BME280;56038;46.080;11.116;2023-03-21T10:46:16;99383.03;;;21.47;38.40
68988;BME280;56038;46.080;11.116;2023-03-21T10:51:22;99370.34;;;21.81;38.11
68988;BME280;56038;46.080;11.116;2023-03-21T10:56:28;99361.13;;;22.16;37.83
68988;BME280;56038;46.080;11.116;2023-03-21T11:01:34;99359.09;;;22.39;36.37
68988;BME280;56038;46.080;11.116;2023-03-21T11:06:38;99349.38;;;22.97;36.46
68988;BME280;56038;46.080;11.116;2023-03-21T11:11:49;99346.25;;;23.41;32.74
68988;BME280;56038;46.080;11.116;2023-03-21T11:16:53;99344.38;;;23.60;34.91
68988;BME280;56038;46.080;11.116;2023-03-21T11:21:55;99332.88;;;23.50;35.29
68988;BME280;56038;46.080;11.116;2023-03-21T11:26:58;99320.34;;;24.25;34.31
68988;BME280;56038;46.080;11.116;2023-03-21T11:32:10;99321.72;;;24.74;29.28
68988;BME280;56038;46.080;11.116;2023-03-21T11:37:19;99310.59;;;24.79;29.79
68988;BME280;56038;46.080;11.116;2023-03-21T11:42:29;99301.09;;;25.46;28.69
68988;BME280;56038;46.080;11.116;2023-03-21T11:47:32;99301.50;;;25.59;30.63
68988;BME280;56038;46.080;11.116;2023-03-21T11:52:38;99283.63;;;26.36;29.24
68988;BME280;56038;46.080;11.116;2023-03-21T11:57:45;99267.50;;;25.44;28.47
68988;BME280;56038;46.080;11.116;2023-03-21T12:03:14;99255.13;;;25.17;26.52
68988;BME280;56038;46.080;11.116;2023-03-21T12:08:31;99235.00;;;26.07;26.53
68988;BME280;56038;46.080;11.116;2023-03-21T12:13:43;99229.97;;;25.61;27.20
68988;BME280;56038;46.080;11.116;2023-03-21T12:18:59;99212.63;;;26.48;25.65
68988;BME280;56038;46.080;11.116;2023-03-21T12:24:08;99206.13;;;26.83;25.66
68988;BME280;56038;46.080;11.116;2023-03-21T12:29:21;99194.66;;;27.61;23.22
68988;BME280;56038;46.080;11.116;2023-03-21T12:34:50;99189.34;;;27.92;23.05
68988;BME280;56038;46.080;11.116;2023-03-21T12:39:59;99180.00;;;26.61;24.12
68988;BME280;56038;46.080;11.116;2023-03-21T12:45:11;99176.28;;;26.78;24.72
68988;BME280;56038;46.080;11.116;2023-03-21T12:50:21;99161.81;;;27.67;24.36
68988;BME280;56038;46.080;11.116;2023-03-21T12:55:25;99152.75;;;27.60;24.96
68988;BME280;56038;46.080;11.116;2023-03-21T13:00:34;99153.84;;;27.43;23.71
68988;BME280;56038;46.080;11.116;2023-03-21T13:05:41;99145.00;;;26.54;25.50
68988;BME280;56038;46.080;11.116;2023-03-21T13:10:46;99128.50;;;27.14;25.79
68988;BME280;56038;46.080;11.116;2023-03-21T13:15:54;99132.03;;;27.07;24.56
68988;BME280;56038;46.080;11.116;2023-03-21T13:21:04;99119.50;;;25.77;26.62
68988;BME280;56038;46.080;11.116;2023-03-21T13:26:11;99123.91;;;23.97;28.26
68988;BME280;56038;46.080;11.116;2023-03-21T13:31:17;99117.16;;;22.46;29.62
68988;BME280;56038;46.080;11.116;2023-03-21T13:36:24;99099.97;;;22.01;30.65
68988;BME280;56038;46.080;11.116;2023-03-21T13:41:30;99101.50;;;21.94;31.02
68988;BME280;56038;46.080;11.116;2023-03-21T13:46:41;99085.69;;;21.64;31.69
68988;BME280;56038;46.080;11.116;2023-03-21T13:51:50;99079.75;;;21.31;32.08
68988;BME280;56038;46.080;11.116;2023-03-21T13:56:55;99075.19;;;21.03;32.82
68988;BME280;56038;46.080;11.116;2023-03-21T14:01:58;99068.19;;;21.02;33.01
68988;BME280;56038;46.080;11.116;2023-03-21T14:07:05;99059.09;;;21.14;32.77
68988;BME280;56038;46.080;11.116;2023-03-21T14:12:12;99055.78;;;21.21;32.97
68988;BME280;56038;46.080;11.116;2023-03-21T14:17:22;99059.78;;;21.46;32.37
68988;BME280;56038;46.080;11.116;2023-03-21T14:22:28;99039.91;;;21.41;32.90
68988;BME280;56038;46.080;11.116;2023-03-21T14:27:32;99043.81;;;20.97;33.07
68988;BME280;56038;46.080;11.116;2023-03-21T14:32:34;99039.38;;;20.67;32.91
68988;BME280;56038;46.080;11.116;2023-03-21T14:37:39;99040.41;;;20.45;33.88
68988;BME280;56038;46.080;11.116;2023-03-21T14:42:45;99019.97;;;20.15;34.19
68988;BME280;56038;46.080;11.116;2023-03-21T14:47:55;99032.44;;;19.61;34.68
68988;BME280;56038;46.080;11.116;2023-03-21T14:52:58;99025.00;;;19.44;35.17
68988;BME280;56038;46.080;11.116;2023-03-21T14:58:00;99018.25;;;19.40;35.43
68988;BME280;56038;46.080;11.116;2023-03-21T15:03:03;99005.81;;;19.20;35.58
68988;BME280;56038;46.080;11.116;2023-03-21T15:08:12;99015.00;;;18.93;36.41
68988;BME280;56038;46.080;11.116;2023-03-21T15:13:17;99006.34;;;19.02;36.01
68988;BME280;56038;46.080;11.116;2023-03-21T15:18:21;99001.56;;;18.96;36.39
68988;BME280;56038;46.080;11.116;2023-03-21T15:23:30;99004.53;;;18.92;36.71
68988;BME280;56038;46.080;11.116;2023-03-21T15:28:35;99003.13;;;18.88;36.69
68988;BME280;56038;46.080;11.116;2023-03-21T15:33:37;99000.13;;;18.81;36.59
68988;BME280;56038;46.080;11.116;2023-03-21T15:38:41;99009.16;;;18.78;36.74
68988;BME280;56038;46.080;11.116;2023-03-21T15:43:45;99001.78;;;18.60;37.12
68988;BME280;56038;46.080;11.116;2023-03-21T15:48:47;99011.78;;;18.56;37.39
68988;BME280;56038;46.080;11.116;2023-03-21T15:53:52;99002.75;;;18.36;38.25
68988;BME280;56038;46.080;11.116;2023-03-21T15:58:54;99022.81;;;18.16;38.47
68988;BME280;56038;46.080;11.116;2023-03-21T16:04:01;99025.31;;;18.07;38.92
68988;BME280;56038;46.080;11.116;2023-03-21T16:09:11;99020.94;;;17.94;39.80
68988;BME280;56038;46.080;11.116;2023-03-21T16:14:22;99029.31;;;17.77;40.33
68988;BME280;56038;46.080;11.116;2023-03-21T16:19:26;99028.09;;;17.70;40.38
68988;BME280;56038;46.080;11.116;2023-03-21T16:24:30;99025.22;;;17.73;40.19
68988;BME280;56038;46.080;11.116;2023-03-21T16:29:32;99044.47;;;17.62;40.65
68988;BME280;56038;46.080;11.116;2023-03-21T16:34:34;99050.78;;;17.49;40.97
68988;BME280;56038;46.080;11.116;2023-03-21T16:39:38;99044.75;;;17.47;41.59
68988;BME280;56038;46.080;11.116;2023-03-21T16:44:40;99045.88;;;17.31;41.77
68988;BME280;56038;46.080;11.116;2023-03-21T16:49:42;99053.00;;;17.18;42.07
68988;BME280;56038;46.080;11.116;2023-03-21T16:54:45;99051.28;;;17.06;42.36
68988;BME280;56038;46.080;11.116;2023-03-21T16:59:47;99059.59;;;17.00;42.41
68988;BME280;56038;46.080;11.116;2023-03-21T17:04:50;99053.31;;;16.90;42.63
68988;BME280;56038;46.080;11.116;2023-03-21T17:09:53;99069.78;;;16.81;42.88
68988;BME280;56038;46.080;11.116;2023-03-21T17:14:54;99071.25;;;16.72;42.81
68988;BME280;56038;46.080;11.116;2023-03-21T17:19:56;99074.41;;;16.64;42.84
68988;BME280;56038;46.080;11.116;2023-03-21T17:24:59;99068.53;;;16.61;42.95
68988;BME280;56038;46.080;11.116;2023-03-21T17:30:03;99082.22;;;16.53;43.04
68988;BME280;56038;46.080;11.116;2023-03-21T17:35:11;99080.13;;;16.45;43.17
68988;BME280;56038;46.080;11.116;2023-03-21T17:40:18;99094.25;;;16.44;43.38
68988;BME280;56038;46.080;11.116;2023-03-21T17:45:20;99090.13;;;16.40;43.59
68988;BME280;56038;46.080;11.116;2023-03-21T17:50:25;99088.31;;;16.41;43.57
68988;BME280;56038;46.080;11.116;2023-03-21T17:55:29;99094.75;;;16.37;43.38
68988;BME280;56038;46.080;11.116;2023-03-21T18:00:31;99090.66;;;16.20;43.81
68988;BME280;56038;46.080;11.116;2023-03-21T18:05:33;99097.91;;;16.16;43.79
68988;BME280;56038;46.080;11.116;2023-03-21T18:10:37;99114.22;;;16.09;44.13
68988;BME280;56038;46.080;11.116;2023-03-21T18:15:39;99131.09;;;16.06;43.98
68988;BME280;56038;46.080;11.116;2023-03-21T18:20:42;99134.56;;;16.07;44.04
68988;BME280;56038;46.080;11.116;2023-03-21T18:25:46;99134.66;;;16.05;44.12
68988;BME280;56038;46.080;11.116;2023-03-21T18:30:48;99136.78;;;16.00;44.02
68988;BME280;56038;46.080;11.116;2023-03-21T18:35:50;99141.09;;;16.01;43.98
68988;BME280;56038;46.080;11.116;2023-03-21T18:40:54;99140.56;;;15.96;44.31
68988;BME280;56038;46.080;11.116;2023-03-21T18:45:56;99141.91;;;15.89;44.77
68988;BME280;56038;46.080;11.116;2023-03-21T18:50:57;99141.38;;;15.84;44.84
68988;BME280;56038;46.080;11.116;2023-03-21T18:56:01;99146.63;;;15.84;44.72
68988;BME280;56038;46.080;11.116;2023-03-21T19:01:03;99156.81;;;15.76;45.26
68988;BME280;56038;46.080;11.116;2023-03-21T19:06:06;99163.22;;;15.72;44.96
68988;BME280;56038;46.080;11.116;2023-03-21T19:11:09;99166.91;;;15.69;45.30
68988;BME280;56038;46.080;11.116;2023-03-21T19:16:11;99174.25;;;15.64;45.23
68988;BME280;56038;46.080;11.116;2023-03-21T19:21:13;99172.81;;;15.58;45.33
68988;BME280;56038;46.080;11.116;2023-03-21T19:26:17;99167.22;;;15.50;45.42
68988;BME280;56038;46.080;11.116;2023-03-21T19:31:19;99169.88;;;15.36;46.15
68988;BME280;56038;46.080;11.116;2023-03-21T19:36:21;99176.06;;;15.35;45.91
68988;BME280;56038;46.080;11.116;2023-03-21T19:41:25;99181.78;;;15.27;46.28
68988;BME280;56038;46.080;11.116;2023-03-21T19:46:26;99190.09;;;15.21;46.57
68988;BME280;56038;46.080;11.116;2023-03-21T19:51:28;99199.97;;;15.18;46.39
68988;BME280;56038;46.080;11.116;2023-03-21T19:56:32;99191.22;;;15.17;46.43
68988;BME280;56038;46.080;11.116;2023-03-21T20:01:34;99194.00;;;15.14;46.70
68988;BME280;56038;46.080;11.116;2023-03-21T20:06:36;99191.47;;;15.13;46.46
68988;BME280;56038;46.080;11.116;2023-03-21T20:11:39;99203.13;;;15.09;46.86
68988;BME280;56038;46.080;11.116;2023-03-21T20:16:41;99206.91;;;15.05;46.64
68988;BME280;56038;46.080;11.116;2023-03-21T20:21:42;99210.78;;;14.99;46.87
68988;BME280;56038;46.080;11.116;2023-03-21T20:26:46;99215.72;;;14.89;47.21
68988;BME280;56038;46.080;11.116;2023-03-21T20:31:48;99223.53;;;14.91;47.18
68988;BME280;56038;46.080;11.116;2023-03-21T20:36:52;99224.66;;;14.87;47.42
68988;BME280;56038;46.080;11.116;2023-03-21T20:41:55;99229.72;;;14.90;47.41
68988;BME280;56038;46.080;11.116;2023-03-21T20:46:57;99232.41;;;14.74;48.30
68988;BME280;56038;46.080;11.116;2023-03-21T20:51:59;99228.25;;;14.56;49.02
68988;BME280;56038;46.080;11.116;2023-03-21T20:57:04;99230.22;;;14.36;50.24
68988;BME280;56038;46.080;11.116;2023-03-21T21:02:08;99231.00;;;14.38;49.98
68988;BME280;56038;46.080;11.116;2023-03-21T21:07:11;99238.59;;;14.43;49.59
68988;BME280;56038;46.080;11.116;2023-03-21T21:12:16;99237.09;;;14.39;49.85
68988;BME280;56038;46.080;11.116;2023-03-21T21:17:18;99247.94;;;14.33;50.05
68988;BME280;56038;46.080;11.116;2023-03-21T21:22:22;99240.97;;;14.32;49.83
68988;BME280;56038;46.080;11.116;2023-03-21T21:27:25;99239.94;;;14.20;50.39
68988;BME280;56038;46.080;11.116;2023-03-21T21:32:28;99243.44;;;14.05;50.88
68988;BME280;56038;46.080;11.116;2023-03-21T21:37:30;99251.22;;;14.06;50.95
68988;BME280;56038;46.080;11.116;2023-03-21T21:42:34;99253.75;;;14.08;50.94
68988;BME280;56038;46.080;11.116;2023-03-21T21:47:36;99251.81;;;13.96;51.41
68988;BME280;56038;46.080;11.116;2023-03-21T21:52:38;99250.13;;;13.95;51.50
68988;BME280;56038;46.080;11.116;2023-03-21T21:57:44;99260.25;;;14.01;51.12
68988;BME280;56038;46.080;11.116;2023-03-21T22:02:49;99254.09;;;13.86;52.04
68988;BME280;56038;46.080;11.116;2023-03-21T22:07:53;99257.22;;;13.77;52.38
68988;BME280;56038;46.080;11.116;2023-03-21T22:12:57;99262.31;;;13.80;52.23
68988;BME280;56038;46.080;11.116;2023-03-21T22:17:59;99256.63;;;13.72;52.41
68988;BME280;56038;46.080;11.116;2023-03-21T22:23:01;99269.06;;;13.68;52.66
68988;BME280;56038;46.080;11.116;2023-03-21T22:28:04;99259.69;;;13.64;52.88
68988;BME280;56038;46.080;11.116;2023-03-21T22:33:06;99262.31;;;13.64;52.80
68988;BME280;56038;46.080;11.116;2023-03-21T22:38:07;99263.31;;;13.62;53.07
68988;BME280;56038;46.080;11.116;2023-03-21T22:43:11;99262.66;;;13.58;53.14
68988;BME280;56038;46.080;11.116;2023-03-21T22:48:12;99267.91;;;13.58;53.00
68988;BME280;56038;46.080;11.116;2023-03-21T22:53:14;99270.81;;;13.52;53.25
68988;BME280;56038;46.080;11.116;2023-03-21T22:58:18;99275.50;;;13.47;53.67
68988;BME280;56038;46.080;11.116;2023-03-21T23:03:19;99275.03;;;13.39;53.92
68988;BME280;56038;46.080;11.116;2023-03-21T23:08:21;99273.84;;;13.29;53.85
68988;BME280;56038;46.080;11.116;2023-03-21T23:13:24;99281.78;;;13.27;53.92
68988;BME280;56038;46.080;11.116;2023-03-21T23:18:27;99279.16;;;13.27;54.02
68988;BME280;56038;46.080;11.116;2023-03-21T23:23:29;99288.03;;;13.25;54.08
68988;BME280;56038;46.080;11.116;2023-03-21T23:28:33;99287.50;;;13.18;54.34
68988;BME280;56038;46.080;11.116;2023-03-21T23:33:35;99288.66;;;13.12;54.47
68988;BME280;56038;46.080;11.116;2023-03-21T23:38:37;99287.19;;;13.07;54.54
68988;BME280;56038;46.080;11.116;2023-03-21T23:43:40;99283.88;;;13.03;54.66
68988;BME280;56038;46.080;11.116;2023-03-21T23:48:44;99286.34;;;12.89;55.12
68988;BME280;56038;46.080;11.116;2023-03-21T23:53:46;99291.06;;;12.82;55.23
68988;BME280;56038;46.080;11.116;2023-03-21T23:58:49;99293.69;;;12.82;55.33
